Time;durP1;ratioP1;P1;durP2;ratioP2;P2;SDS_P1;SDS_P2;PMS_P1;PMS_P2;Temp;Humidity;BMP_temperature;BMP_pressure;BME280_temperature;BME280_humidity;BME280_pressure;Samples;Min_cycle;Max_cycle;Signal;HPM_P1;HPM_P2
2023/04/01 00:01:19;;;;;;;;;;;;;;;25.16;25.04;96441.50;5052305;28;19932;-86
2023/04/01 00:03:45;;;;;;;;;;;;;;;24.83;25.64;96436.00;5050423;28;20000;-85
2023/04/01 00:06:13;;;;;;;;;;;;;;;24.94;26.34;96430.59;5050966;28;20380;-88
2023/04/01 00:08:39;;;;;;;;;;;;;;;24.58;25.67;96428.78;5048568;28;19924;-85
2023/04/01 00:11:05;;;;;;;;;;;;;;;24.00;26.02;96425.63;5049651;28;19923;-83
2023/04/01 00:13:32;;;;;;;;;;;;;;;24.56;25.89;96424.91;5045377;28;20394;-86
2023/04/01 00:15:58;;;;;;;;;;;;;;;23.85;27.02;96428.31;5049575;28;19921;-86
2023/04/01 00:18:24;;;;;;;;;;;;;;;23.46;28.28;96412.56;5046930;28;19925;-84
2023/04/01 00:20:51;;;;;;;;;;;;;;;24.20;26.19;96417.47;5049113;28;19924;-84
2023/04/01 00:23:17;;;;;;;;;;;;;;;23.67;27.90;96408.75;5047204;28;19927;-85
2023/04/01 00:25:45;;;;;;;;;;;;;;;24.35;26.82;96409.13;5051177;28;19956;-85
2023/04/01 00:28:11;;;;;;;;;;;;;;;24.36;26.55;96405.88;5050430;28;19923;-85
2023/04/01 00:30:37;;;;;;;;;;;;;;;24.59;25.38;96405.09;5059681;28;19916;-84
2023/04/01 00:33:03;;;;;;;;;;;;;;;24.76;25.43;96396.25;5053877;28;19924;-85
2023/04/01 00:35:29;;;;;;;;;;;;;;;24.96;25.95;96400.00;5058201;28;19916;-85
2023/04/01 00:37:55;;;;;;;;;;;;;;;25.60;25.51;96400.22;5052389;28;19921;-85
2023/04/01 00:40:27;;;;;;;;;;;;;;;24.88;26.04;96393.19;5051096;28;19928;-84
2023/04/01 00:42:53;;;;;;;;;;;;;;;24.53;26.43;96404.19;5051310;28;19924;-85
2023/04/01 00:45:31;;;;;;;;;;;;;;;25.24;25.70;96398.53;5051486;28;19925;-85
2023/04/01 00:47:58;;;;;;;;;;;;;;;25.06;25.42;96398.69;5052485;28;19920;-84
2023/04/01 00:50:25;;;;;;;;;;;;;;;25.27;24.82;96400.38;5052847;28;19925;-85
2023/04/01 00:52:52;;;;;;;;;;;;;;;25.50;25.46;96398.78;5047636;28;19921;-85
2023/04/01 00:55:19;;;;;;;;;;;;;;;26.01;25.16;96398.34;5058183;28;19921;-85
2023/04/01 00:57:45;;;;;;;;;;;;;;;26.28;24.03;96400.06;5051085;28;19967;-85
2023/04/01 01:00:14;;;;;;;;;;;;;;;26.24;24.91;96396.66;5051531;28;19921;-85
2023/04/01 01:02:41;;;;;;;;;;;;;;;26.03;24.91;96396.59;5052458;28;20034;-85
2023/04/01 01:05:07;;;;;;;;;;;;;;;26.15;25.20;96399.59;5053078;28;20413;-85
2023/04/01 01:07:38;;;;;;;;;;;;;;;25.89;24.90;96405.03;5051769;28;19967;-85
2023/04/01 01:10:04;;;;;;;;;;;;;;;25.97;24.75;96409.03;5034370;28;19956;-84
2023/04/01 01:12:39;;;;;;;;;;;;;;;26.22;25.10;96399.97;5049859;28;19964;-84
2023/04/01 01:15:08;;;;;;;;;;;;;;;26.02;24.34;96394.28;5053575;28;19973;-84
2023/04/01 01:17:37;;;;;;;;;;;;;;;26.07;25.01;96402.78;5052020;28;19921;-84
2023/04/01 01:20:19;;;;;;;;;;;;;;;26.52;24.73;96397.84;5056042;28;19928;-84
2023/04/01 01:23:03;;;;;;;;;;;;;;;26.63;24.18;96407.22;5074879;28;19951;-84
2023/04/01 01:25:35;;;;;;;;;;;;;;;26.85;23.93;96411.63;5060329;28;20020;-84
2023/04/01 01:28:21;;;;;;;;;;;;;;;27.11;23.76;96410.41;5059141;28;19936;-84
2023/04/01 01:31:00;;;;;;;;;;;;;;;27.17;23.71;96407.66;5050729;28;20436;-84
2023/04/01 01:33:44;;;;;;;;;;;;;;;27.16;23.84;96408.94;5047228;28;20385;-85
2023/04/01 01:36:12;;;;;;;;;;;;;;;27.47;23.70;96411.84;5053836;28;19912;-85
2023/04/01 01:38:39;;;;;;;;;;;;;;;27.71;24.04;96409.53;5054283;28;20493;-85
2023/04/01 01:41:07;;;;;;;;;;;;;;;27.78;24.17;96411.91;5053155;28;19917;-84
2023/04/01 01:43:36;;;;;;;;;;;;;;;27.85;23.28;96410.69;5046548;28;20369;-84
2023/04/01 01:46:05;;;;;;;;;;;;;;;27.58;23.90;96408.38;5044946;28;19944;-84
2023/04/01 01:48:32;;;;;;;;;;;;;;;27.59;23.03;96424.78;5054515;28;19929;-85
2023/04/01 01:50:58;;;;;;;;;;;;;;;27.57;23.63;96418.88;5053124;28;20339;-85
2023/04/01 01:53:24;;;;;;;;;;;;;;;27.43;23.15;96419.75;5051192;28;19932;-85
2023/04/01 01:55:51;;;;;;;;;;;;;;;27.12;23.52;96411.19;5057368;28;19920;-84
2023/04/01 01:58:22;;;;;;;;;;;;;;;26.93;23.32;96416.34;5049095;28;19929;-84
2023/04/01 02:00:54;;;;;;;;;;;;;;;26.81;23.52;96416.69;5048561;28;19951;-85
2023/04/01 02:03:22;;;;;;;;;;;;;;;26.60;24.37;96418.69;5051181;28;19921;-85
2023/04/01 02:05:50;;;;;;;;;;;;;;;26.54;24.18;96418.59;5053361;28;19921;-84
2023/04/01 02:08:20;;;;;;;;;;;;;;;26.64;23.90;96422.06;5052031;28;19921;-85
2023/04/01 02:10:52;;;;;;;;;;;;;;;26.69;24.17;96424.19;5034683;28;19921;-85
2023/04/01 02:13:24;;;;;;;;;;;;;;;26.80;24.29;96417.94;5060347;28;19990;-84
2023/04/01 02:15:52;;;;;;;;;;;;;;;27.04;24.12;96418.53;5052464;28;19966;-84
2023/04/01 02:18:19;;;;;;;;;;;;;;;27.30;23.27;96420.13;5051053;28;20347;-85
2023/04/01 02:20:45;;;;;;;;;;;;;;;27.21;23.28;96428.72;5045071;28;19924;-84
2023/04/01 02:23:12;;;;;;;;;;;;;;;26.97;23.62;96427.41;5050878;28;19920;-85
2023/04/01 02:25:39;;;;;;;;;;;;;;;26.85;22.98;96431.34;5051512;28;20407;-85
2023/04/01 02:28:06;;;;;;;;;;;;;;;26.71;23.55;96428.06;5031905;28;19982;-85
2023/04/01 02:30:34;;;;;;;;;;;;;;;26.65;23.21;96434.91;5059427;28;19923;-85
2023/04/01 02:33:01;;;;;;;;;;;;;;;26.47;23.70;96435.13;5052515;28;19920;-85
2023/04/01 02:35:27;;;;;;;;;;;;;;;26.33;24.30;96438.75;5054641;28;19917;-85
2023/04/01 02:37:54;;;;;;;;;;;;;;;26.43;23.82;96440.19;5053902;28;19921;-84
2023/04/01 02:40:20;;;;;;;;;;;;;;;26.43;24.21;96443.00;5052031;28;19964;-85
2023/04/01 02:42:46;;;;;;;;;;;;;;;26.58;24.73;96444.50;5053489;28;20269;-85
2023/04/01 02:45:13;;;;;;;;;;;;;;;26.68;23.92;96448.75;5045791;28;19925;-85
2023/04/01 02:47:39;;;;;;;;;;;;;;;26.77;24.22;96455.56;5062105;28;19932;-85
2023/04/01 02:50:05;;;;;;;;;;;;;;;26.94;24.30;96451.69;5053617;28;19951;-85
2023/04/01 02:52:31;;;;;;;;;;;;;;;27.09;23.43;96449.59;5055318;28;19921;-85
2023/04/01 02:54:58;;;;;;;;;;;;;;;27.17;23.26;96452.72;5052506;28;19943;-84
2023/04/01 02:57:24;;;;;;;;;;;;;;;27.16;24.08;96449.16;5053120;28;19968;-85
2023/04/01 02:59:50;;;;;;;;;;;;;;;27.22;23.87;96437.94;5052918;28;19929;-84
2023/04/01 03:02:16;;;;;;;;;;;;;;;27.01;23.43;96444.84;5046596;28;20407;-85
2023/04/01 03:04:43;;;;;;;;;;;;;;;26.62;24.06;96449.94;5051169;28;20023;-85
2023/04/01 03:07:12;;;;;;;;;;;;;;;26.53;24.66;96453.66;5043235;28;19932;-85
2023/04/01 03:09:38;;;;;;;;;;;;;;;26.51;24.34;96452.59;5050987;28;19921;-85
2023/04/01 03:12:04;;;;;;;;;;;;;;;26.40;23.50;96438.34;5045835;28;19928;-85
2023/04/01 03:14:30;;;;;;;;;;;;;;;26.06;24.18;96439.84;5054797;28;19921;-84
2023/04/01 03:16:56;;;;;;;;;;;;;;;25.99;25.22;96437.44;5055000;28;19923;-84
2023/04/01 03:19:22;;;;;;;;;;;;;;;25.89;25.26;96436.75;5039375;28;20128;-84
2023/04/01 03:21:48;;;;;;;;;;;;;;;25.63;24.71;96438.59;5060998;28;19980;-84
2023/04/01 03:24:14;;;;;;;;;;;;;;;25.55;25.92;96445.09;5050397;28;19982;-84
2023/04/01 03:26:40;;;;;;;;;;;;;;;25.85;25.20;96441.03;5049271;28;20376;-84
2023/04/01 03:29:06;;;;;;;;;;;;;;;26.06;24.04;96442.66;5051713;28;19921;-84
2023/04/01 03:31:32;;;;;;;;;;;;;;;26.01;24.40;96444.13;5068736;28;20009;-84
2023/04/01 03:33:58;;;;;;;;;;;;;;;25.83;25.24;96441.53;5071291;28;19917;-84
2023/04/01 03:36:24;;;;;;;;;;;;;;;25.64;25.72;96448.59;5074591;28;19918;-84
2023/04/01 03:38:50;;;;;;;;;;;;;;;25.87;24.38;96444.13;5062278;28;20324;-84
2023/04/01 03:41:17;;;;;;;;;;;;;;;25.84;25.11;96440.25;5054031;28;19921;-84
2023/04/01 03:43:43;;;;;;;;;;;;;;;25.98;24.64;96447.13;5053823;28;19913;-84
2023/04/01 03:46:09;;;;;;;;;;;;;;;26.30;25.05;96443.31;5053068;28;19920;-84
2023/04/01 03:48:35;;;;;;;;;;;;;;;26.66;24.49;96447.69;5047880;28;20395;-84
2023/04/01 03:51:01;;;;;;;;;;;;;;;26.67;24.74;96444.41;5048674;28;19976;-84
2023/04/01 03:53:27;;;;;;;;;;;;;;;26.70;24.92;96449.03;5053230;28;19920;-84
2023/04/01 03:55:54;;;;;;;;;;;;;;;26.97;24.26;96445.06;5054455;28;19935;-84
2023/04/01 03:58:20;;;;;;;;;;;;;;;27.18;23.68;96448.66;5054669;28;19928;-85
2023/04/01 04:00:46;;;;;;;;;;;;;;;27.00;24.18;96451.78;5047758;28;19924;-84
2023/04/01 04:03:12;;;;;;;;;;;;;;;27.04;24.51;96455.16;5038532;28;20296;-84
2023/04/01 04:05:45;;;;;;;;;;;;;;;27.34;23.93;96454.50;5053953;28;19921;-85
2023/04/01 04:08:11;;;;;;;;;;;;;;;27.07;23.82;96454.91;5038260;28;19923;-85
2023/04/01 04:10:37;;;;;;;;;;;;;;;27.10;24.06;96455.97;5040986;28;19974;-87
2023/04/01 04:13:03;;;;;;;;;;;;;;;27.25;24.73;96459.50;5062032;28;19924;-85
2023/04/01 04:15:29;;;;;;;;;;;;;;;27.33;24.13;96464.22;5053978;28;19921;-85
2023/04/01 04:17:55;;;;;;;;;;;;;;;27.49;24.27;96464.94;5047591;28;19925;-85
2023/04/01 04:20:21;;;;;;;;;;;;;;;27.61;24.36;96464.53;5053486;28;20387;-85
2023/04/01 04:22:47;;;;;;;;;;;;;;;27.71;23.72;96471.56;5053269;28;19978;-85
2023/04/01 04:25:13;;;;;;;;;;;;;;;27.81;23.96;96469.38;5053251;28;19913;-85
2023/04/01 04:27:39;;;;;;;;;;;;;;;27.88;23.44;96474.56;5053730;28;19921;-85
2023/04/01 04:30:06;;;;;;;;;;;;;;;27.79;23.52;96466.28;5060427;28;20264;-85
2023/04/01 04:32:32;;;;;;;;;;;;;;;27.57;24.42;96469.63;5051392;28;19921;-85
2023/04/01 04:34:58;;;;;;;;;;;;;;;27.52;23.82;96466.75;5051510;28;20308;-85
2023/04/01 04:37:25;;;;;;;;;;;;;;;27.45;23.43;96470.00;5036941;28;20343;-85
2023/04/01 04:39:51;;;;;;;;;;;;;;;27.43;24.42;96467.69;5051159;28;19944;-85
2023/04/01 04:42:17;;;;;;;;;;;;;;;27.63;24.33;96464.84;5052327;28;20377;-85
2023/04/01 04:44:44;;;;;;;;;;;;;;;27.73;23.58;96471.84;5051461;28;19921;-85
2023/04/01 04:47:10;;;;;;;;;;;;;;;27.69;23.66;96468.47;5056747;28;19928;-85
2023/04/01 04:49:36;;;;;;;;;;;;;;;27.66;22.78;96463.03;5051677;28;19924;-85
2023/04/01 04:52:02;;;;;;;;;;;;;;;27.36;23.63;96465.25;5048276;28;19970;-85
2023/04/01 04:54:29;;;;;;;;;;;;;;;27.04;24.01;96472.03;5051433;28;19939;-85
2023/04/01 04:56:55;;;;;;;;;;;;;;;27.07;24.30;96473.88;5052142;28;19921;-85
2023/04/01 04:59:21;;;;;;;;;;;;;;;27.20;24.58;96463.03;5051411;28;19928;-85
2023/04/01 05:01:47;;;;;;;;;;;;;;;27.37;24.35;96467.63;5059807;28;19928;-85
2023/04/01 05:04:13;;;;;;;;;;;;;;;27.21;24.83;96459.69;5060177;28;19923;-85
2023/04/01 05:06:39;;;;;;;;;;;;;;;27.39;24.61;96470.72;5057751;28;19947;-85
2023/04/01 05:09:05;;;;;;;;;;;;;;;27.35;24.82;96469.38;5047839;28;19921;-84
2023/04/01 05:11:31;;;;;;;;;;;;;;;27.37;24.53;96467.63;5045045;28;19921;-85
2023/04/01 05:13:57;;;;;;;;;;;;;;;27.55;24.49;96472.19;5045945;28;20469;-84
2023/04/01 05:16:23;;;;;;;;;;;;;;;27.67;23.61;96473.06;5044539;28;19921;-85
2023/04/01 05:18:49;;;;;;;;;;;;;;;27.60;24.54;96470.69;5045032;28;19925;-86
2023/04/01 05:21:15;;;;;;;;;;;;;;;27.76;24.58;96481.38;5041371;28;20599;-85
2023/04/01 05:23:42;;;;;;;;;;;;;;;27.80;23.99;96482.69;5046497;28;19935;-84
2023/04/01 05:26:10;;;;;;;;;;;;;;;27.80;24.20;96482.69;5048212;28;19933;-83
2023/04/01 05:28:36;;;;;;;;;;;;;;;27.51;24.23;96477.28;5046863;28;20015;-83
2023/04/01 05:31:02;;;;;;;;;;;;;;;27.39;24.46;96478.41;5049516;28;19929;-83
2023/04/01 05:33:29;;;;;;;;;;;;;;;27.36;24.92;96482.19;5048939;28;19921;-84
2023/04/01 05:35:55;;;;;;;;;;;;;;;27.40;25.37;96482.75;5052631;28;20287;-83
2023/04/01 05:38:22;;;;;;;;;;;;;;;27.64;25.09;96480.47;5047526;28;19927;-83
2023/04/01 05:40:47;;;;;;;;;;;;;;;27.66;25.09;96472.28;5049914;28;19921;-83
2023/04/01 05:43:14;;;;;;;;;;;;;;;27.47;25.42;96476.69;5046555;28;19943;-88
2023/04/01 05:45:40;;;;;;;;;;;;;;;27.54;25.27;96483.97;5045061;28;19964;-86
2023/04/01 05:48:06;;;;;;;;;;;;;;;27.65;26.50;96481.25;5053854;28;20398;-83
2023/04/01 05:50:32;;;;;;;;;;;;;;;27.99;25.82;96480.34;5050563;28;19995;-83
2023/04/01 05:52:58;;;;;;;;;;;;;;;28.18;25.50;96478.72;5052866;28;20023;-83
2023/04/01 05:55:24;;;;;;;;;;;;;;;28.29;25.91;96481.63;5050896;28;20367;-83
2023/04/01 05:57:50;;;;;;;;;;;;;;;28.53;25.93;96476.44;5051350;28;19936;-84
2023/04/01 06:00:17;;;;;;;;;;;;;;;28.73;25.28;96479.16;5043167;28;19995;-83
2023/04/01 06:02:43;;;;;;;;;;;;;;;28.79;25.74;96478.41;5052893;28;19923;-83
2023/04/01 06:05:15;;;;;;;;;;;;;;;28.64;25.32;96478.56;5054109;28;20331;-84
2023/04/01 06:07:41;;;;;;;;;;;;;;;28.57;25.56;96473.34;5055485;28;20276;-84
2023/04/01 06:10:18;;;;;;;;;;;;;;;28.56;25.02;96477.47;5058004;28;20299;-84
2023/04/01 06:12:51;;;;;;;;;;;;;;;28.32;24.81;96474.19;5050977;28;19916;-83
2023/04/01 06:15:29;;;;;;;;;;;;;;;27.75;25.58;96479.84;5054865;28;19917;-83
2023/04/01 06:18:03;;;;;;;;;;;;;;;27.68;25.58;96475.38;5052102;28;19928;-83
2023/04/01 06:20:35;;;;;;;;;;;;;;;27.85;25.36;96479.16;5053920;28;19940;-84
2023/04/01 06:23:20;;;;;;;;;;;;;;;28.00;25.67;96477.03;5055240;28;19917;-84
2023/04/01 06:25:48;;;;;;;;;;;;;;;27.73;25.62;96482.34;5054053;28;20357;-84
2023/04/01 06:28:17;;;;;;;;;;;;;;;27.62;25.40;96476.59;5056431;28;19924;-84
2023/04/01 06:30:47;;;;;;;;;;;;;;;27.77;25.92;96480.84;5052466;28;20054;-83
2023/04/01 06:33:16;;;;;;;;;;;;;;;27.99;25.21;96475.47;5053337;28;20323;-84
2023/04/01 06:35:54;;;;;;;;;;;;;;;27.79;25.34;96483.97;5052855;28;19916;-84
2023/04/01 06:38:35;;;;;;;;;;;;;;;28.10;26.40;96483.25;5034773;28;20284;-85
2023/04/01 06:41:08;;;;;;;;;;;;;;;28.22;25.30;96484.91;5053227;28;19925;-84
2023/04/01 06:43:52;;;;;;;;;;;;;;;28.42;25.89;96489.69;5054173;28;19928;-84
2023/04/01 06:46:36;;;;;;;;;;;;;;;28.48;25.36;96479.19;5054033;28;20319;-84
2023/04/01 06:49:20;;;;;;;;;;;;;;;28.52;25.41;96474.13;5054133;28;20372;-84
2023/04/01 06:52:25;;;;;;;;;;;;;;;28.63;25.12;96482.69;5051596;28;20031;-84
2023/04/01 06:55:09;;;;;;;;;;;;;;;28.67;24.42;96477.56;4987240;28;19949;-85
2023/04/01 06:57:41;;;;;;;;;;;;;;;28.44;25.95;96478.66;4986067;28;20028;-85
2023/04/01 07:00:21;;;;;;;;;;;;;;;28.68;25.47;96476.31;5023557;28;19991;-86
2023/04/01 07:02:55;;;;;;;;;;;;;;;28.83;23.70;96482.56;5052117;28;20011;-84
2023/04/01 07:05:22;;;;;;;;;;;;;;;28.51;25.01;96483.84;5054720;28;19921;-84
2023/04/01 07:07:54;;;;;;;;;;;;;;;28.77;24.73;96475.31;5055215;28;19917;-84
2023/04/01 07:10:32;;;;;;;;;;;;;;;29.05;25.05;96471.38;5035795;28;19921;-84
2023/04/01 07:13:00;;;;;;;;;;;;;;;29.28;25.02;96477.94;5054100;28;19928;-85
2023/04/01 07:15:46;;;;;;;;;;;;;;;29.21;24.61;96473.53;5053312;28;19923;-84
2023/04/01 07:18:17;;;;;;;;;;;;;;;29.09;24.86;96474.72;5030661;28;19921;-84
2023/04/01 07:20:44;;;;;;;;;;;;;;;29.25;25.26;96470.47;5051292;28;19921;-85
2023/04/01 07:23:15;;;;;;;;;;;;;;;29.36;24.85;96471.28;5053000;28;19929;-84
2023/04/01 07:25:43;;;;;;;;;;;;;;;29.21;25.28;96475.59;5038112;28;19952;-85
2023/04/01 07:28:13;;;;;;;;;;;;;;;28.89;22.84;96460.00;5050992;28;19925;-87
2023/04/01 07:30:47;;;;;;;;;;;;;;;28.81;24.30;96471.00;5045793;28;19924;-87
2023/04/01 07:33:16;;;;;;;;;;;;;;;28.73;24.63;96467.84;5044930;28;20017;-86
2023/04/01 07:35:48;;;;;;;;;;;;;;;28.53;24.63;96467.97;5052658;28;19917;-85
2023/04/01 07:38:22;;;;;;;;;;;;;;;28.37;24.78;96470.66;5050673;28;19962;-86
2023/04/01 07:40:53;;;;;;;;;;;;;;;28.50;24.61;96473.81;5049815;28;20299;-85
2023/04/01 07:43:28;;;;;;;;;;;;;;;28.82;23.50;96466.13;5051373;28;20399;-84
2023/04/01 07:46:10;;;;;;;;;;;;;;;28.56;25.20;96469.00;5051808;28;20015;-85
2023/04/01 07:48:45;;;;;;;;;;;;;;;27.67;25.30;96473.84;5050181;28;19920;-86
2023/04/01 07:51:11;;;;;;;;;;;;;;;27.67;25.20;96470.25;5049109;28;19917;-84
2023/04/01 07:53:49;;;;;;;;;;;;;;;26.85;26.47;96473.56;5062179;28;19944;-83
2023/04/01 07:56:20;;;;;;;;;;;;;;;26.17;25.82;96473.03;5051356;28;20360;-86
2023/04/01 07:59:05;;;;;;;;;;;;;;;26.73;25.50;96473.41;5048915;28;19920;-85
2023/04/01 08:01:52;;;;;;;;;;;;;;;27.69;25.16;96474.13;5053823;28;19920;-86
2023/04/01 08:04:44;;;;;;;;;;;;;;;28.14;24.83;96480.22;5035222;28;20292;-86
2023/04/01 08:07:12;;;;;;;;;;;;;;;27.88;24.82;96481.00;5052063;28;19970;-84
2023/04/01 08:09:44;;;;;;;;;;;;;;;27.32;24.35;96484.44;5053164;28;20005;-85
2023/04/01 08:12:10;;;;;;;;;;;;;;;26.50;26.80;96485.59;5044940;28;20268;-85
2023/04/01 08:14:44;;;;;;;;;;;;;;;24.88;31.97;96494.28;5061319;28;20008;-84
2023/04/01 08:17:22;;;;;;;;;;;;;;;25.53;26.66;96492.59;5058494;28;20314;-84
2023/04/01 08:19:51;;;;;;;;;;;;;;;25.87;25.92;96495.53;5045933;28;19921;-83
2023/04/01 08:22:27;;;;;;;;;;;;;;;26.92;26.39;96496.47;5062159;28;19925;-84
2023/04/01 08:24:55;;;;;;;;;;;;;;;26.83;29.15;96490.97;5052659;28;19939;-84
2023/04/01 08:27:28;;;;;;;;;;;;;;;26.34;24.44;96482.53;5035586;28;20399;-84
2023/04/01 08:29:59;;;;;;;;;;;;;;;26.31;25.89;96494.75;5051118;28;19936;-82
2023/04/01 08:32:29;;;;;;;;;;;;;;;25.49;27.60;96495.56;5052274;28;19932;-83
2023/04/01 08:35:06;;;;;;;;;;;;;;;26.30;25.78;96490.41;5017818;28;19928;-83
2023/04/01 08:37:34;;;;;;;;;;;;;;;26.63;26.31;96490.88;5050544;28;19921;-83
2023/04/01 08:40:13;;;;;;;;;;;;;;;26.87;28.90;96494.34;5050139;28;19921;-83
2023/04/01 08:42:42;;;;;;;;;;;;;;;25.90;29.24;96488.16;5050110;28;19925;-84
2023/04/01 08:45:14;;;;;;;;;;;;;;;25.67;29.03;96489.78;5048928;28;19932;-85
2023/04/01 08:47:59;;;;;;;;;;;;;;;26.18;28.29;96483.81;5050593;28;20518;-86
2023/04/01 08:50:43;;;;;;;;;;;;;;;27.47;27.39;96475.94;5049987;28;19978;-85
2023/04/01 08:53:09;;;;;;;;;;;;;;;27.10;29.24;96486.97;5052040;28;19933;-84
2023/04/01 08:55:44;;;;;;;;;;;;;;;26.59;32.76;96484.69;5051099;28;19920;-86
2023/04/01 08:58:15;;;;;;;;;;;;;;;25.21;31.89;96492.19;5049735;28;19925;-84
2023/04/01 09:01:14;;;;;;;;;;;;;;;25.64;27.58;96481.53;5062530;28;20395;-85
2023/04/01 09:03:42;;;;;;;;;;;;;;;24.52;32.98;96491.66;5024603;28;19933;-84
2023/04/01 09:06:31;;;;;;;;;;;;;;;24.18;30.58;96494.94;5054586;28;19916;-85
2023/04/01 09:09:17;;;;;;;;;;;;;;;25.96;25.78;96480.59;5059150;28;19948;-84
2023/04/01 09:11:43;;;;;;;;;;;;;;;27.69;26.59;96491.03;5053887;28;19917;-85
2023/04/01 09:14:23;;;;;;;;;;;;;;;27.44;24.28;96476.91;5057108;28;19924;-85
2023/04/01 09:16:55;;;;;;;;;;;;;;;28.06;25.23;96482.72;5072237;28;20287;-84
2023/04/01 09:19:44;;;;;;;;;;;;;;;28.36;25.93;96477.56;5071743;28;19928;-87
2023/04/01 09:22:22;;;;;;;;;;;;;;;28.95;25.35;96472.88;5038708;28;19961;-85
2023/04/01 09:24:54;;;;;;;;;;;;;;;28.59;22.72;96482.91;5056876;28;19935;-85
2023/04/01 09:27:26;;;;;;;;;;;;;;;28.74;24.27;96477.09;5051824;28;19979;-86
2023/04/01 09:30:11;;;;;;;;;;;;;;;29.30;24.44;96478.19;5045218;28;19979;-88
2023/04/01 09:32:40;;;;;;;;;;;;;;;28.97;23.45;96475.19;5051261;28;19928;-86
2023/04/01 09:35:35;;;;;;;;;;;;;;;28.13;24.06;96478.66;5052502;28;19932;-87
2023/04/01 09:38:14;;;;;;;;;;;;;;;28.94;23.87;96488.25;5051385;28;19927;-86
2023/04/01 09:40:55;;;;;;;;;;;;;;;28.51;24.11;96484.63;5061868;28;19924;-86
2023/04/01 09:43:28;;;;;;;;;;;;;;;28.55;23.18;96470.28;5053756;28;20020;-86
2023/04/01 09:46:03;;;;;;;;;;;;;;;27.18;23.80;96482.47;5051616;28;19982;-86
2023/04/01 09:48:48;;;;;;;;;;;;;;;26.73;28.15;96486.69;5055562;28;19924;-88
2023/04/01 09:51:26;;;;;;;;;;;;;;;27.99;24.10;96488.81;5045542;28;19916;-88
2023/04/01 09:53:57;;;;;;;;;;;;;;;27.24;24.30;96492.53;5052919;28;20015;-87
2023/04/01 09:56:23;;;;;;;;;;;;;;;26.89;24.43;96497.44;5048054;28;19996;-85
2023/04/01 09:59:12;;;;;;;;;;;;;;;27.57;24.77;96508.31;5059040;28;19955;-86
2023/04/01 10:01:41;;;;;;;;;;;;;;;27.06;24.01;96500.50;5054973;28;20322;-86
2023/04/01 10:04:07;;;;;;;;;;;;;;;26.95;23.96;96501.13;5059209;28;19920;-87
2023/04/01 10:06:52;;;;;;;;;;;;;;;27.12;25.14;96509.81;5042413;28;20035;-87
2023/04/01 10:09:37;;;;;;;;;;;;;;;26.84;24.52;96511.47;5064084;28;20273;-87
2023/04/01 10:12:21;;;;;;;;;;;;;;;26.64;26.52;96512.16;5064067;28;19931;-86
2023/04/01 10:15:07;;;;;;;;;;;;;;;27.03;25.60;96521.19;5058759;28;19928;-86
2023/04/01 10:17:45;;;;;;;;;;;;;;;25.97;25.28;96515.91;5028664;28;19928;-86
2023/04/01 10:20:26;;;;;;;;;;;;;;;25.31;26.72;96515.34;5054492;28;19928;-86
2023/04/01 10:22:52;;;;;;;;;;;;;;;24.90;28.33;96525.44;5051722;28;19936;-87
2023/04/01 10:25:37;;;;;;;;;;;;;;;24.51;27.35;96518.16;5055672;28;19928;-84
2023/04/01 10:28:13;;;;;;;;;;;;;;;24.58;28.06;96526.22;5055630;28;20023;-86
2023/04/01 10:30:58;;;;;;;;;;;;;;;25.68;26.88;96530.69;5054156;28;19928;-87
2023/04/01 10:33:37;;;;;;;;;;;;;;;26.59;27.42;96527.72;5046282;28;20638;-87
2023/04/01 10:36:32;;;;;;;;;;;;;;;26.03;28.96;96525.19;5049851;28;19947;-86
2023/04/01 10:39:17;;;;;;;;;;;;;;;26.38;26.04;96528.91;4992910;28;19933;-87
2023/04/01 10:42:02;;;;;;;;;;;;;;;25.80;28.75;96529.66;5048126;28;20351;-87
2023/04/01 10:44:28;;;;;;;;;;;;;;;25.62;28.25;96532.63;5051419;28;19921;-87
2023/04/01 10:46:54;;;;;;;;;;;;;;;26.23;26.67;96535.81;5052075;28;20365;-87
2023/04/01 10:49:38;;;;;;;;;;;;;;;26.62;27.13;96534.41;5052015;28;19920;-88
2023/04/01 10:52:22;;;;;;;;;;;;;;;26.81;27.31;96538.56;5054762;28;19932;-87
2023/04/01 10:54:56;;;;;;;;;;;;;;;27.66;26.71;96539.97;5052827;28;20368;-87
2023/04/01 10:57:40;;;;;;;;;;;;;;;28.41;25.31;96536.13;5052835;28;19917;-87
2023/04/01 11:00:28;;;;;;;;;;;;;;;28.84;24.77;96534.19;5040803;28;20431;-88
2023/04/01 11:03:31;;;;;;;;;;;;;;;29.03;25.00;96524.81;5048421;28;19928;-88
2023/04/01 11:06:16;;;;;;;;;;;;;;;29.32;25.06;96527.31;5046853;28;20514;-88
2023/04/01 11:08:42;;;;;;;;;;;;;;;28.98;24.79;96534.03;5047991;28;19925;-87
2023/04/01 11:11:34;;;;;;;;;;;;;;;29.03;23.55;96522.00;5052143;28;20343;-86
2023/04/01 11:14:03;;;;;;;;;;;;;;;28.82;23.16;96531.88;5048231;28;19917;-87
2023/04/01 11:16:48;;;;;;;;;;;;;;;28.75;22.45;96532.34;5052857;28;19921;-88
2023/04/01 11:19:23;;;;;;;;;;;;;;;28.49;22.45;96531.59;5051635;28;19925;-87
2023/04/01 11:21:54;;;;;;;;;;;;;;;28.45;24.89;96528.22;5045405;28;19963;-87
2023/04/01 11:24:27;;;;;;;;;;;;;;;28.25;24.32;96522.66;5046528;28;19967;-86
2023/04/01 11:27:17;;;;;;;;;;;;;;;27.96;24.17;96527.22;5045801;28;19935;-87
2023/04/01 11:30:06;;;;;;;;;;;;;;;27.59;26.67;96517.84;5045513;28;19964;-86
2023/04/01 11:32:55;;;;;;;;;;;;;;;27.07;27.72;96533.81;5040999;28;19929;-86
2023/04/01 11:35:24;;;;;;;;;;;;;;;25.00;31.03;96529.78;5013117;28;19933;-86
2023/04/01 11:38:06;;;;;;;;;;;;;;;26.37;28.48;96521.72;5044284;28;19924;-87
2023/04/01 11:40:37;;;;;;;;;;;;;;;27.96;25.56;96515.16;5044877;28;19929;-90
2023/04/01 11:43:23;;;;;;;;;;;;;;;29.18;23.64;96511.28;5043797;28;19983;-91
2023/04/01 11:46:09;;;;;;;;;;;;;;;29.68;24.71;96517.16;5043901;28;20025;-88
2023/04/01 11:48:54;;;;;;;;;;;;;;;29.78;24.86;96512.84;5031943;28;20376;-88
2023/04/01 11:51:39;;;;;;;;;;;;;;;28.09;29.50;96509.94;5042187;28;19925;-90
2023/04/01 11:54:23;;;;;;;;;;;;;;;28.44;24.10;96515.38;5044154;28;20384;-91
2023/04/01 11:57:07;;;;;;;;;;;;;;;26.85;25.55;96516.59;5027443;28;20408;-87
2023/04/01 11:59:48;;;;;;;;;;;;;;;26.03;29.47;96520.34;5045369;28;19924;-88
2023/04/01 12:02:17;;;;;;;;;;;;;;;25.35;28.12;96530.78;5045044;28;19921;-88
2023/04/01 12:04:56;;;;;;;;;;;;;;;25.52;30.37;96538.78;5046831;28;19974;-86
2023/04/01 12:07:45;;;;;;;;;;;;;;;25.92;27.32;96525.78;5046521;28;19986;-87
2023/04/01 12:10:17;;;;;;;;;;;;;;;25.30;31.43;96531.44;5008902;28;20288;-86
2023/04/01 12:13:02;;;;;;;;;;;;;;;26.59;26.50;96533.34;5048541;28;19920;-87
2023/04/01 12:15:28;;;;;;;;;;;;;;;27.00;24.22;96528.59;5037856;28;19925;-86
2023/04/01 12:18:04;;;;;;;;;;;;;;;25.94;26.24;96533.72;5045444;28;19920;-87
2023/04/01 12:20:36;;;;;;;;;;;;;;;25.98;28.43;96537.91;5044369;28;19925;-90
2023/04/01 12:23:23;;;;;;;;;;;;;;;26.38;25.83;96542.19;5036749;28;20347;-88
2023/04/01 12:25:58;;;;;;;;;;;;;;;26.51;26.23;96539.88;5049392;28;19920;-87
2023/04/01 12:28:44;;;;;;;;;;;;;;;26.54;27.04;96539.66;5044987;28;19921;-87
2023/04/01 12:31:23;;;;;;;;;;;;;;;25.98;29.14;96549.16;5040702;28;20375;-87
2023/04/01 12:33:57;;;;;;;;;;;;;;;25.58;31.66;96551.69;5044354;28;20643;-87
2023/04/01 12:36:37;;;;;;;;;;;;;;;24.69;30.78;96552.53;5044667;28;20016;-88
2023/04/01 12:39:07;;;;;;;;;;;;;;;25.50;30.36;96555.38;5043384;28;19928;-87
2023/04/01 12:41:41;;;;;;;;;;;;;;;26.34;27.28;96545.22;5047502;28;19921;-88
2023/04/01 12:44:23;;;;;;;;;;;;;;;27.16;26.70;96549.81;5047014;28;19928;-88
2023/04/01 12:47:08;;;;;;;;;;;;;;;27.57;23.85;96548.59;5046007;28;20368;-88
2023/04/01 12:49:53;;;;;;;;;;;;;;;26.91;24.36;96548.44;5048569;28;19921;-87
2023/04/01 12:52:26;;;;;;;;;;;;;;;27.23;24.75;96550.19;5044282;28;20343;-89
2023/04/01 12:54:52;;;;;;;;;;;;;;;27.78;25.17;96550.13;5037147;28;20261;-89
2023/04/01 12:57:27;;;;;;;;;;;;;;;27.20;24.75;96548.34;5048986;28;19947;-89
2023/04/01 12:59:59;;;;;;;;;;;;;;;27.27;24.57;96542.28;5047281;28;20292;-89
2023/04/01 13:02:25;;;;;;;;;;;;;;;27.53;24.15;96550.84;5044833;28;20007;-89
2023/04/01 13:05:11;;;;;;;;;;;;;;;27.64;23.92;96544.56;5044432;28;20062;-90
2023/04/01 13:07:46;;;;;;;;;;;;;;;26.69;24.58;96562.16;5042240;28;19936;-88
2023/04/01 13:10:15;;;;;;;;;;;;;;;25.73;26.25;96552.53;5049321;28;19920;-89
2023/04/01 13:12:56;;;;;;;;;;;;;;;24.73;30.65;96572.00;5019969;28;20067;-90
2023/04/01 13:15:43;;;;;;;;;;;;;;;24.61;31.14;96587.81;5032321;28;19979;-88